createdAt,value
2023-08-17T00:00:50.732Z,50.63
2023-08-17T00:01:50.632Z,50.72
2023-08-17T00:02:50.533Z,50.73
2023-08-17T00:03:50.640Z,50.70
2023-08-17T00:04:50.508Z,51.01
2023-08-17T00:05:50.517Z,51.78
2023-08-17T00:06:50.651Z,53.06
2023-08-17T00:07:50.504Z,50.75
2023-08-17T00:08:50.459Z,50.68
2023-08-17T00:09:50.478Z,50.74
2023-08-17T00:10:50.422Z,50.75
2023-08-17T00:11:50.433Z,51.37
2023-08-17T00:12:50.501Z,50.74
2023-08-17T00:13:50.430Z,50.61
2023-08-17T00:14:50.587Z,53.10
2023-08-17T00:15:50.460Z,50.63
2023-08-17T00:16:50.451Z,50.59
2023-08-17T00:17:50.457Z,50.61
2023-08-17T00:18:50.443Z,50.72
2023-08-17T00:19:50.442Z,50.66
2023-08-17T00:20:50.459Z,50.54
2023-08-17T00:21:50.404Z,50.56
2023-08-17T00:22:50.337Z,50.63
2023-08-17T00:23:50.391Z,50.57
2023-08-17T00:24:50.470Z,50.60
2023-08-17T00:25:50.308Z,50.50
2023-08-17T00:26:50.295Z,51.08
2023-08-17T00:27:50.288Z,51.56
2023-08-17T00:28:50.291Z,54.45
2023-08-17T00:29:50.405Z,54.49
2023-08-17T00:30:50.340Z,54.56
2023-08-17T00:31:50.281Z,54.64
2023-08-17T00:32:50.456Z,50.63
2023-08-17T00:33:50.280Z,50.46
2023-08-17T00:34:50.337Z,50.47
2023-08-17T00:35:50.386Z,50.84
2023-08-17T00:36:50.289Z,51.00
2023-08-17T00:37:50.238Z,50.46
2023-08-17T00:38:50.234Z,50.60
2023-08-17T00:39:50.316Z,50.65
2023-08-17T00:40:50.258Z,50.83
2023-08-17T00:41:50.245Z,50.82
2023-08-17T00:42:50.660Z,50.54
2023-08-17T00:43:50.261Z,50.56
2023-08-17T00:44:50.207Z,50.56
2023-08-17T00:45:50.179Z,50.58
2023-08-17T00:46:50.170Z,50.58
2023-08-17T00:47:50.179Z,50.60
2023-08-17T00:48:50.210Z,50.64
2023-08-17T00:49:50.185Z,50.54
2023-08-17T00:50:50.203Z,50.52
2023-08-17T00:51:50.212Z,50.90
2023-08-17T00:52:50.137Z,51.93
2023-08-17T00:53:50.156Z,54.35
2023-08-17T00:54:50.150Z,54.45
2023-08-17T00:55:50.130Z,54.58
2023-08-17T00:56:50.069Z,53.04
2023-08-17T00:57:50.094Z,50.98
2023-08-17T00:58:50.137Z,50.45
2023-08-17T01:00:02.970Z,50.51
2023-08-17T01:00:51.152Z,50.95
2023-08-17T01:01:50.101Z,50.46
2023-08-17T01:02:50.038Z,50.34
2023-08-17T01:03:50.045Z,50.40
2023-08-17T01:04:50.081Z,50.84
2023-08-17T01:05:50.138Z,52.37
2023-08-17T01:06:50.117Z,50.75
2023-08-17T01:07:50.024Z,50.57
2023-08-17T01:08:50.014Z,50.41
2023-08-17T01:09:50.056Z,50.48
2023-08-17T01:10:50.011Z,51.47
2023-08-17T01:11:49.999Z,50.68
2023-08-17T01:12:50.033Z,51.88
2023-08-17T01:13:50.038Z,50.60
2023-08-17T01:14:49.965Z,53.96
2023-08-17T01:15:49.990Z,54.53
2023-08-17T01:16:49.950Z,54.87
2023-08-17T01:17:50.023Z,54.33
2023-08-17T01:18:50.060Z,51.18
2023-08-17T01:19:49.924Z,50.25
2023-08-17T01:20:49.925Z,50.36
2023-08-17T01:21:49.962Z,50.60
2023-08-17T01:22:49.950Z,50.55
2023-08-17T01:23:49.904Z,50.41
2023-08-17T01:24:50.164Z,50.30
2023-08-17T01:25:50.036Z,50.43
2023-08-17T01:26:49.931Z,50.45
2023-08-17T01:27:49.916Z,50.57
2023-08-17T01:28:49.914Z,50.32
2023-08-17T01:29:49.894Z,50.61
2023-08-17T01:30:49.963Z,50.56
2023-08-17T01:31:49.866Z,50.47
2023-08-17T01:32:49.917Z,50.43
2023-08-17T01:33:49.832Z,50.37
2023-08-17T01:34:49.833Z,50.54
2023-08-17T01:35:49.829Z,50.49
2023-08-17T01:36:49.905Z,50.54
2023-08-17T01:37:49.864Z,53.95
2023-08-17T01:38:49.866Z,54.14
2023-08-17T01:39:49.882Z,54.26
2023-08-17T01:40:49.841Z,54.43
2023-08-17T01:41:49.762Z,52.21
2023-08-17T01:42:49.893Z,50.25
2023-08-17T01:43:49.791Z,50.37
2023-08-17T01:44:49.751Z,50.57
2023-08-17T01:45:49.789Z,51.02
2023-08-17T01:46:49.802Z,50.53
2023-08-17T01:47:49.772Z,50.41
2023-08-17T01:48:49.837Z,50.30
2023-08-17T01:49:49.699Z,50.38
2023-08-17T01:50:49.753Z,50.42
2023-08-17T01:51:49.706Z,50.47
2023-08-17T01:52:49.679Z,50.44
2023-08-17T01:53:49.739Z,50.42
2023-08-17T01:54:49.725Z,50.46
2023-08-17T01:55:50.177Z,51.51
2023-08-17T01:56:49.702Z,50.33
2023-08-17T01:57:49.642Z,50.35
2023-08-17T01:58:49.633Z,50.39
2023-08-17T01:59:49.645Z,51.15
2023-08-17T02:00:49.693Z,51.33
2023-08-17T02:01:49.615Z,52.89
2023-08-17T02:02:49.689Z,54.22
2023-08-17T02:03:49.601Z,54.25
2023-08-17T02:04:49.626Z,54.23
2023-08-17T02:05:49.601Z,53.32
2023-08-17T02:06:49.654Z,50.26
2023-08-17T02:07:49.630Z,50.28
2023-08-17T02:08:49.621Z,50.42
2023-08-17T02:09:49.561Z,50.30
2023-08-17T02:10:49.608Z,50.29
2023-08-17T02:11:49.602Z,50.35
2023-08-17T02:12:49.642Z,50.21
2023-08-17T02:13:49.531Z,50.39
2023-08-17T02:14:49.569Z,50.49
2023-08-17T02:15:49.523Z,50.41
2023-08-17T02:16:49.513Z,50.43
2023-08-17T02:17:49.541Z,50.59
2023-08-17T02:18:49.545Z,50.48
2023-08-17T02:19:49.542Z,50.31
2023-08-17T02:20:49.477Z,50.45
2023-08-17T02:21:49.457Z,50.45
2023-08-17T02:22:49.471Z,50.90
2023-08-17T02:23:49.449Z,51.73
2023-08-17T02:24:49.508Z,50.42
2023-08-17T02:25:49.440Z,50.33
2023-08-17T02:26:49.434Z,50.33
2023-08-17T02:27:49.427Z,50.41
2023-08-17T02:28:49.442Z,53.76
2023-08-17T02:29:49.412Z,54.03
2023-08-17T02:30:49.517Z,54.34
2023-08-17T02:31:49.372Z,54.25
2023-08-17T02:32:49.401Z,51.80
2023-08-17T02:33:49.372Z,51.16
2023-08-17T02:34:49.374Z,50.46
2023-08-17T02:35:49.381Z,50.25
2023-08-17T02:36:49.409Z,50.36
2023-08-17T02:37:49.354Z,50.29
2023-08-17T02:38:49.386Z,50.22
2023-08-17T02:39:49.393Z,50.35
2023-08-17T02:40:49.381Z,50.69
2023-08-17T02:41:49.320Z,51.23
2023-08-17T02:42:49.370Z,50.62
2023-08-17T02:43:49.355Z,50.44
2023-08-17T02:44:49.283Z,52.28
2023-08-17T02:45:49.268Z,50.77
2023-08-17T02:46:49.276Z,50.58
2023-08-17T02:47:49.309Z,51.89
2023-08-17T02:48:49.343Z,50.45
2023-08-17T02:49:49.273Z,50.59
2023-08-17T02:50:49.313Z,50.72
2023-08-17T02:51:49.243Z,52.99
2023-08-17T02:52:49.278Z,53.20
2023-08-17T02:53:49.284Z,52.55
2023-08-17T02:54:49.302Z,53.66
2023-08-17T02:55:49.222Z,52.75
2023-08-17T02:56:49.233Z,50.42
2023-08-17T02:57:49.192Z,50.62
2023-08-17T02:58:49.199Z,52.49
2023-08-17T02:59:49.186Z,50.44
2023-08-17T03:00:49.295Z,50.47
2023-08-17T03:01:49.242Z,50.34
2023-08-17T03:02:49.245Z,50.45
2023-08-17T03:03:49.158Z,51.73
2023-08-17T03:04:49.149Z,53.96
2023-08-17T03:05:49.147Z,54.10
2023-08-17T03:06:49.191Z,54.18
2023-08-17T03:07:49.148Z,54.19
2023-08-17T03:08:49.100Z,51.22
2023-08-17T03:09:49.109Z,50.22
2023-08-17T03:10:49.104Z,50.27
2023-08-17T03:11:49.076Z,50.43
2023-08-17T03:12:49.193Z,53.06
2023-08-17T03:13:49.122Z,50.38
2023-08-17T03:14:49.126Z,50.56
2023-08-17T03:15:49.154Z,50.46
2023-08-17T03:16:49.086Z,50.54
2023-08-17T03:17:49.129Z,50.63
2023-08-17T03:18:49.134Z,50.61
2023-08-17T03:19:49.058Z,50.78
2023-08-17T03:20:49.080Z,51.32
2023-08-17T03:21:49.076Z,50.53
2023-08-17T03:22:49.017Z,50.50
2023-08-17T03:23:49.016Z,50.54
2023-08-17T03:24:49.122Z,52.60
2023-08-17T03:25:49.005Z,50.64
2023-08-17T03:26:48.973Z,50.45
2023-08-17T03:27:49.010Z,50.53
2023-08-17T03:28:48.959Z,50.66
2023-08-17T03:29:49.034Z,51.06
2023-08-17T03:30:49.139Z,52.95
2023-08-17T03:31:48.999Z,50.37
2023-08-17T03:32:48.975Z,50.59
2023-08-17T03:33:48.972Z,50.60
2023-08-17T03:34:49.005Z,51.27
2023-08-17T03:35:48.993Z,57.64
2023-08-17T03:36:49.022Z,55.45
2023-08-17T03:37:48.923Z,56.50
2023-08-17T03:38:48.941Z,54.79
2023-08-17T03:39:48.947Z,52.95
2023-08-17T03:40:48.934Z,53.73
2023-08-17T03:41:48.912Z,51.12
2023-08-17T03:42:48.945Z,50.63
2023-08-17T03:43:48.948Z,51.62
2023-08-17T03:44:48.850Z,50.62
2023-08-17T03:45:48.949Z,51.94
2023-08-17T03:46:48.854Z,51.40
2023-08-17T03:47:48.887Z,55.65
2023-08-17T03:48:48.911Z,50.90
2023-08-17T03:49:48.922Z,52.80
2023-08-17T03:50:48.853Z,51.03
2023-08-17T03:51:48.865Z,53.55
2023-08-17T03:52:48.829Z,54.55
2023-08-17T03:53:48.775Z,56.22
2023-08-17T03:54:48.870Z,57.62
2023-08-17T03:55:48.866Z,57.70
2023-08-17T03:56:48.754Z,56.76
2023-08-17T03:57:48.760Z,54.62
2023-08-17T03:58:48.777Z,55.26
2023-08-17T03:59:48.808Z,53.57
2023-08-17T04:00:48.831Z,51.32
2023-08-17T04:01:48.760Z,52.10
2023-08-17T04:02:48.778Z,51.47
2023-08-17T04:03:48.782Z,51.22
2023-08-17T04:04:48.785Z,51.54
2023-08-17T04:05:48.788Z,51.39
2023-08-17T04:06:48.757Z,54.59
2023-08-17T04:07:48.706Z,56.39
2023-08-17T04:08:48.688Z,58.54
2023-08-17T04:09:48.713Z,59.49
2023-08-17T04:10:48.681Z,59.57
2023-08-17T04:11:48.662Z,55.36
2023-08-17T04:12:48.719Z,56.93
2023-08-17T04:13:48.723Z,54.60
2023-08-17T04:14:48.711Z,54.89
2023-08-17T04:15:48.682Z,52.25
2023-08-17T04:16:48.697Z,54.49
2023-08-17T04:17:48.681Z,52.00
2023-08-17T04:18:48.747Z,53.00
2023-08-17T04:19:48.671Z,51.12
2023-08-17T04:20:48.648Z,50.69
2023-08-17T04:21:48.580Z,53.19
2023-08-17T04:22:48.585Z,51.03
2023-08-17T04:23:48.606Z,50.92
2023-08-17T04:24:48.648Z,50.94
2023-08-17T04:25:48.607Z,51.02
2023-08-17T04:26:48.558Z,53.91
2023-08-17T04:27:48.547Z,59.06
2023-08-17T04:28:48.564Z,58.30
2023-08-17T04:29:48.543Z,52.03
2023-08-17T04:30:48.583Z,51.14
2023-08-17T04:31:48.642Z,52.41
2023-08-17T04:32:48.522Z,54.98
2023-08-17T04:33:48.528Z,54.23
2023-08-17T04:34:48.575Z,56.21
2023-08-17T04:35:48.492Z,57.97
2023-08-17T04:36:48.541Z,56.19
2023-08-17T04:37:48.477Z,51.44
2023-08-17T04:38:48.497Z,52.10
2023-08-17T04:39:48.512Z,54.13
2023-08-17T04:40:48.454Z,53.46
2023-08-17T04:41:48.532Z,53.11
2023-08-17T04:42:48.527Z,53.63
2023-08-17T04:43:48.415Z,51.02
2023-08-17T04:44:48.529Z,52.42
2023-08-17T04:45:48.519Z,52.60
2023-08-17T04:46:48.464Z,54.37
2023-08-17T04:47:48.516Z,54.97
2023-08-17T04:48:48.524Z,59.48
2023-08-17T04:49:48.435Z,55.88
2023-08-17T04:50:48.435Z,55.02
2023-08-17T04:51:48.397Z,54.60
2023-08-17T04:52:48.442Z,51.84
2023-08-17T04:53:48.455Z,55.34
2023-08-17T04:54:48.422Z,54.10
2023-08-17T04:55:48.368Z,53.89
2023-08-17T04:56:48.398Z,55.66
2023-08-17T04:57:48.412Z,58.55
2023-08-17T04:58:48.372Z,56.30
2023-08-17T04:59:48.311Z,56.07
2023-08-17T05:00:48.418Z,55.83
2023-08-17T05:01:48.387Z,56.72
2023-08-17T05:02:48.371Z,54.48
2023-08-17T05:03:48.351Z,56.43
2023-08-17T05:04:48.337Z,60.87
2023-08-17T05:05:48.273Z,57.11
2023-08-17T05:06:48.331Z,56.14
2023-08-17T05:07:48.316Z,55.00
2023-08-17T05:08:48.249Z,54.12
2023-08-17T05:09:48.256Z,53.01
2023-08-17T05:10:48.274Z,55.40
2023-08-17T05:11:48.250Z,53.46
2023-08-17T05:12:48.246Z,57.67
2023-08-17T05:13:48.261Z,55.83
2023-08-17T05:14:48.239Z,57.59
2023-08-17T05:15:48.256Z,58.15
2023-08-17T05:16:48.168Z,55.94
2023-08-17T05:17:48.251Z,55.45
2023-08-17T05:18:48.282Z,57.55
2023-08-17T05:19:48.138Z,57.84
2023-08-17T05:20:48.227Z,58.18
2023-08-17T05:21:48.111Z,57.39
2023-08-17T05:22:48.151Z,58.21
2023-08-17T05:23:48.179Z,58.44
2023-08-17T05:24:48.160Z,57.91
2023-08-17T05:25:48.147Z,56.74
2023-08-17T05:26:48.175Z,57.94
2023-08-17T05:27:48.179Z,57.35
2023-08-17T05:28:48.168Z,58.60
2023-08-17T05:29:48.146Z,52.96
2023-08-17T05:30:48.331Z,55.52
2023-08-17T05:31:48.140Z,53.65
2023-08-17T05:32:48.110Z,54.19
2023-08-17T05:33:48.047Z,52.36
2023-08-17T05:34:48.059Z,56.47
2023-08-17T05:35:48.090Z,55.11
2023-08-17T05:36:48.195Z,53.72
2023-08-17T05:37:48.064Z,56.38
2023-08-17T05:38:48.009Z,53.92
2023-08-17T05:39:48.019Z,51.85
2023-08-17T05:40:48.026Z,53.88
2023-08-17T05:41:48.047Z,59.91
2023-08-17T05:42:48.081Z,54.59
2023-08-17T05:43:47.978Z,56.30
2023-08-17T05:44:47.986Z,58.11
2023-08-17T05:45:48.032Z,58.56
2023-08-17T05:46:48.076Z,59.28
2023-08-17T05:47:48.031Z,60.83
2023-08-17T05:48:48.086Z,58.66
2023-08-17T05:49:48.013Z,60.43
2023-08-17T05:50:47.960Z,59.50
2023-08-17T05:51:47.999Z,59.14
2023-08-17T05:52:48.006Z,58.52
2023-08-17T05:53:47.908Z,57.56
2023-08-17T05:54:48.053Z,60.77
2023-08-17T05:55:47.969Z,57.01
2023-08-17T05:56:47.978Z,55.91
2023-08-17T05:57:47.908Z,57.64
2023-08-17T05:58:47.977Z,56.32
2023-08-17T05:59:47.949Z,56.67
2023-08-17T06:00:48.146Z,58.90
2023-08-17T06:01:47.906Z,56.40
2023-08-17T06:02:47.934Z,58.62
2023-08-17T06:03:47.899Z,55.65
2023-08-17T06:04:47.847Z,56.76
2023-08-17T06:05:47.852Z,55.12
2023-08-17T06:06:47.919Z,57.05
2023-08-17T06:07:47.888Z,55.01
2023-08-17T06:08:47.870Z,53.94
2023-08-17T06:09:47.891Z,56.39
2023-08-17T06:10:47.853Z,55.96
2023-08-17T06:11:47.861Z,54.56
2023-08-17T06:12:47.857Z,57.40
2023-08-17T06:13:47.843Z,55.83
2023-08-17T06:14:47.827Z,53.63
2023-08-17T06:15:47.759Z,54.93
2023-08-17T06:16:47.763Z,57.00
2023-08-17T06:17:47.798Z,54.88
2023-08-17T06:18:47.873Z,55.84
2023-08-17T06:19:47.745Z,51.95
2023-08-17T06:21:48.629Z,54.87
2023-08-17T06:22:47.772Z,56.32
2023-08-17T06:23:47.733Z,58.96
2023-08-17T06:24:47.837Z,57.37
2023-08-17T06:25:47.726Z,60.89
2023-08-17T06:26:47.751Z,59.61
2023-08-17T06:27:47.706Z,58.75
2023-08-17T06:28:47.762Z,56.94
2023-08-17T06:29:47.732Z,56.53
2023-08-17T06:30:47.866Z,54.55
2023-08-17T06:31:47.691Z,55.65
2023-08-17T06:32:47.754Z,57.49
2023-08-17T06:33:47.708Z,54.11
2023-08-17T06:34:47.708Z,51.70
2023-08-17T06:35:47.672Z,52.84
2023-08-17T06:36:47.700Z,58.25
2023-08-17T06:37:47.623Z,54.42
2023-08-17T06:38:47.640Z,57.08
2023-08-17T06:39:47.657Z,55.84
2023-08-17T06:40:47.611Z,54.47
2023-08-17T06:41:47.648Z,52.75
2023-08-17T06:42:47.692Z,52.45
2023-08-17T06:43:47.608Z,58.86
2023-08-17T06:44:47.663Z,57.71
2023-08-17T06:45:47.579Z,56.31
2023-08-17T06:46:47.579Z,65.81
2023-08-17T06:47:47.661Z,69.58
2023-08-17T06:48:47.665Z,69.37
2023-08-17T06:49:47.566Z,71.31
2023-08-17T06:50:47.566Z,70.29
2023-08-17T06:51:47.526Z,65.25
2023-08-17T06:52:47.521Z,66.30
2023-08-17T06:53:47.567Z,65.97
2023-08-17T06:54:47.585Z,68.29
2023-08-17T06:55:47.475Z,68.72
2023-08-17T06:56:47.514Z,68.25
2023-08-17T06:57:47.455Z,64.37
2023-08-17T06:58:47.481Z,65.38
2023-08-17T06:59:47.489Z,65.71
2023-08-17T07:00:47.592Z,56.29
2023-08-17T07:01:47.469Z,53.66
2023-08-17T07:02:53.705Z,53.96
2023-08-17T07:03:48.463Z,55.34
2023-08-17T07:04:47.625Z,59.32
2023-08-17T07:05:47.480Z,57.06
2023-08-17T07:06:47.511Z,56.15
2023-08-17T07:07:47.397Z,59.53
2023-08-17T07:08:47.471Z,58.51
2023-08-17T07:09:47.413Z,57.86
2023-08-17T07:10:47.440Z,53.85
2023-08-17T07:11:47.435Z,52.97
2023-08-17T07:12:47.508Z,55.49
2023-08-17T07:13:47.427Z,55.82
2023-08-17T07:14:47.418Z,53.57
2023-08-17T07:15:47.443Z,51.71
2023-08-17T07:16:47.379Z,53.30
2023-08-17T07:17:47.369Z,60.94
2023-08-17T07:18:47.386Z,55.25
2023-08-17T07:20:48.315Z,52.88
2023-08-17T07:21:47.348Z,56.14
2023-08-17T07:22:47.296Z,56.33
2023-08-17T07:23:47.336Z,58.29
2023-08-17T07:24:47.430Z,62.47
2023-08-17T07:25:47.309Z,61.98
2023-08-17T07:26:47.350Z,60.06
2023-08-17T07:27:47.330Z,59.79
2023-08-17T07:28:47.314Z,61.38
2023-08-17T07:29:47.284Z,60.44
2023-08-17T07:30:47.330Z,60.97
2023-08-17T07:31:47.308Z,59.81
2023-08-17T07:32:47.248Z,60.64
2023-08-17T07:33:47.290Z,60.14
2023-08-17T07:34:47.247Z,62.17
2023-08-17T07:35:47.269Z,59.39
2023-08-17T07:36:47.264Z,60.18
2023-08-17T07:37:55.865Z,59.24
2023-08-17T07:38:48.264Z,60.56
2023-08-17T07:39:47.259Z,60.28
2023-08-17T07:40:47.250Z,62.46
2023-08-17T07:41:47.232Z,60.23
2023-08-17T07:42:47.273Z,56.88
2023-08-17T07:43:47.170Z,58.28
2023-08-17T07:44:47.178Z,59.09
2023-08-17T07:45:47.182Z,55.34
2023-08-17T07:46:47.133Z,52.38
2023-08-17T07:47:47.199Z,59.74
2023-08-17T07:48:47.241Z,55.33
2023-08-17T07:49:47.186Z,57.16
2023-08-17T07:50:47.194Z,56.12
2023-08-17T07:51:47.129Z,58.04
2023-08-17T07:52:47.165Z,56.65
2023-08-17T07:53:47.174Z,62.98
2023-08-17T07:54:47.149Z,57.94
2023-08-17T07:55:47.278Z,55.44
2023-08-17T07:56:47.052Z,60.34
2023-08-17T07:57:47.160Z,60.01
2023-08-17T07:58:47.053Z,60.32
2023-08-17T07:59:47.066Z,60.11
2023-08-17T08:00:47.180Z,59.10
2023-08-17T08:01:47.126Z,58.50
2023-08-17T08:02:47.136Z,55.01
2023-08-17T08:03:47.025Z,56.17
2023-08-17T08:04:47.038Z,57.45
2023-08-17T08:05:47.137Z,57.05
2023-08-17T08:06:47.151Z,57.58
2023-08-17T08:07:47.032Z,52.17
2023-08-17T08:08:47.051Z,58.20
2023-08-17T08:09:46.932Z,61.47
2023-08-17T08:10:47.018Z,61.47
2023-08-17T08:11:46.997Z,62.38
2023-08-17T08:12:46.986Z,60.67
2023-08-17T08:13:46.943Z,59.58
2023-08-17T08:14:47.017Z,59.50
2023-08-17T08:15:47.017Z,61.01
2023-08-17T08:16:46.993Z,61.20
2023-08-17T08:17:47.000Z,61.35
2023-08-17T08:18:46.987Z,61.44
2023-08-17T08:19:46.914Z,62.08
2023-08-17T08:20:46.953Z,64.91
2023-08-17T08:21:46.935Z,62.02
2023-08-17T08:22:46.942Z,60.65
2023-08-17T08:23:46.929Z,60.90
2023-08-17T08:24:46.929Z,58.85
2023-08-17T08:25:46.897Z,58.75
2023-08-17T08:26:46.902Z,59.56
2023-08-17T08:27:46.911Z,58.57
2023-08-17T08:28:46.905Z,54.90
2023-08-17T08:29:46.836Z,56.32
2023-08-17T08:30:46.947Z,56.71
2023-08-17T08:31:46.873Z,55.83
2023-08-17T08:32:46.872Z,58.87
2023-08-17T08:33:46.807Z,60.49
2023-08-17T08:34:46.809Z,58.76
2023-08-17T08:35:46.887Z,59.97
2023-08-17T08:36:46.833Z,59.62
2023-08-17T08:37:46.825Z,60.01
2023-08-17T08:38:46.821Z,59.46
2023-08-17T08:39:46.792Z,61.23
2023-08-17T08:40:46.751Z,59.69
2023-08-17T08:41:46.788Z,59.69
2023-08-17T08:42:46.791Z,59.89
2023-08-17T08:43:47.940Z,60.88
2023-08-17T08:44:46.752Z,61.28
2023-08-17T08:45:46.809Z,59.75
2023-08-17T08:46:46.747Z,60.20
2023-08-17T08:47:46.813Z,58.85
2023-08-17T08:48:46.767Z,60.07
2023-08-17T08:49:46.709Z,62.67
2023-08-17T08:50:46.738Z,60.22
2023-08-17T08:51:46.696Z,62.14
2023-08-17T08:52:46.655Z,65.26
2023-08-17T08:53:46.727Z,59.23
2023-08-17T08:54:46.765Z,57.54
2023-08-17T08:55:46.712Z,56.55
2023-08-17T08:56:48.205Z,61.25
2023-08-17T08:57:51.673Z,61.49
2023-08-17T08:58:47.694Z,60.74
2023-08-17T08:59:46.627Z,59.39
2023-08-17T09:00:46.766Z,59.60
2023-08-17T09:01:47.560Z,58.86
2023-08-17T09:02:46.615Z,59.35
2023-08-17T09:03:46.639Z,57.01
2023-08-17T09:04:46.662Z,58.43
2023-08-17T09:05:46.577Z,58.02
2023-08-17T09:06:46.642Z,56.42
2023-08-17T09:07:46.649Z,57.33
2023-08-17T09:08:46.604Z,60.84
2023-08-17T09:09:46.611Z,59.91
2023-08-17T09:10:46.597Z,55.13
2023-08-17T09:11:46.599Z,58.43
2023-08-17T09:13:46.580Z,60.19
2023-08-17T09:14:46.508Z,58.46
2023-08-17T09:15:46.561Z,58.76
2023-08-17T09:16:46.602Z,59.86
2023-08-17T09:17:46.571Z,62.81
2023-08-17T09:18:46.567Z,61.33
2023-08-17T09:19:46.539Z,58.22
2023-08-17T09:20:48.667Z,60.09
2023-08-17T09:21:50.902Z,60.81
2023-08-17T09:22:46.509Z,59.96
2023-08-17T09:23:46.491Z,59.65
2023-08-17T09:24:46.565Z,60.90
2023-08-17T09:25:46.460Z,64.07
2023-08-17T09:26:46.539Z,61.89
2023-08-17T09:27:46.406Z,59.12
2023-08-17T09:28:46.447Z,59.32
2023-08-17T09:29:46.454Z,59.94
2023-08-17T09:30:46.515Z,60.05
2023-08-17T09:31:46.419Z,60.06
2023-08-17T09:32:46.458Z,59.37
2023-08-17T09:33:46.429Z,59.43
2023-08-17T09:34:49.070Z,60.42
2023-08-17T09:35:46.421Z,60.48
2023-08-17T09:36:46.411Z,60.66
2023-08-17T09:37:46.382Z,60.94
2023-08-17T09:38:46.397Z,59.79
2023-08-17T09:39:46.385Z,61.81
2023-08-17T09:40:46.317Z,59.86
2023-08-17T09:41:46.289Z,53.68
2023-08-17T09:42:46.418Z,53.87
2023-08-17T09:43:46.419Z,52.78
2023-08-17T09:44:46.335Z,54.58
2023-08-17T09:45:46.334Z,61.30
2023-08-17T09:46:46.378Z,62.42
2023-08-17T09:47:46.338Z,59.96
2023-08-17T09:48:46.388Z,60.09
2023-08-17T09:49:46.316Z,61.49
2023-08-17T09:50:46.370Z,59.96
2023-08-17T09:51:46.318Z,60.94
2023-08-17T09:52:51.347Z,61.22
2023-08-17T09:53:47.314Z,59.49
2023-08-17T09:54:46.279Z,60.49
2023-08-17T09:55:46.284Z,61.29
2023-08-17T09:56:46.265Z,55.40
2023-08-17T09:57:46.287Z,54.53
2023-08-17T09:58:46.200Z,55.29
2023-08-17T09:59:46.300Z,56.26
2023-08-17T10:00:50.332Z,58.49
2023-08-17T10:01:47.229Z,60.64
2023-08-17T10:02:46.230Z,57.73
2023-08-17T10:03:46.276Z,57.09
2023-08-17T10:04:46.225Z,55.67
2023-08-17T10:05:46.274Z,56.01
2023-08-17T10:06:46.195Z,54.27
2023-08-17T10:07:46.160Z,60.30
2023-08-17T10:08:46.163Z,56.98
2023-08-17T10:09:50.138Z,60.01
2023-08-17T10:10:46.169Z,59.93
2023-08-17T10:11:46.336Z,59.22
2023-08-17T10:12:46.073Z,59.89
2023-08-17T10:13:46.113Z,61.23
2023-08-17T10:14:46.126Z,60.81
2023-08-17T10:15:46.144Z,60.73
2023-08-17T10:16:46.169Z,59.61
2023-08-17T10:17:46.227Z,61.73
2023-08-17T10:18:46.123Z,60.53
2023-08-17T10:19:46.164Z,60.12
2023-08-17T10:20:46.069Z,59.26
2023-08-17T10:21:46.086Z,59.85
2023-08-17T10:22:46.034Z,60.16
2023-08-17T10:23:46.138Z,61.11
2023-08-17T10:24:46.872Z,60.46
2023-08-17T10:25:51.353Z,60.37
2023-08-17T10:26:47.079Z,61.86
2023-08-17T10:27:45.992Z,61.55
2023-08-17T10:28:45.971Z,60.94
2023-08-17T10:29:46.068Z,60.04
2023-08-17T10:30:45.997Z,60.18
2023-08-17T10:31:46.051Z,61.57
2023-08-17T10:32:46.028Z,60.84
2023-08-17T10:33:46.018Z,61.09
2023-08-17T10:34:45.980Z,60.99
2023-08-17T10:35:46.014Z,62.36
2023-08-17T10:36:45.953Z,59.28
2023-08-17T10:37:45.973Z,60.25
2023-08-17T10:38:45.985Z,60.71
2023-08-17T10:39:45.969Z,60.73
2023-08-17T10:40:45.975Z,57.20
2023-08-17T10:41:46.022Z,59.04
2023-08-17T10:42:45.917Z,60.35
2023-08-17T10:43:45.936Z,59.19
2023-08-17T10:44:45.888Z,60.37
2023-08-17T10:45:45.975Z,60.37
2023-08-17T10:46:45.850Z,61.17
2023-08-17T10:47:45.982Z,62.79
2023-08-17T10:48:45.891Z,60.30
2023-08-17T10:49:45.879Z,61.16
2023-08-17T10:50:45.899Z,61.04
2023-08-17T10:51:45.895Z,59.91
2023-08-17T10:52:49.086Z,55.42
2023-08-17T10:53:45.956Z,54.59
2023-08-17T10:54:45.930Z,53.56
2023-08-17T10:55:45.864Z,52.33
2023-08-17T10:56:47.114Z,50.98
2023-08-17T10:57:45.856Z,55.83
2023-08-17T10:58:45.831Z,49.94
2023-08-17T10:59:45.901Z,52.83
2023-08-17T11:00:46.342Z,54.24
2023-08-17T11:01:45.843Z,55.82
2023-08-17T11:02:45.796Z,55.71
2023-08-17T11:03:45.828Z,56.12
2023-08-17T11:04:45.817Z,56.89
2023-08-17T11:05:45.805Z,54.55
2023-08-17T11:06:45.778Z,54.01
2023-08-17T11:07:45.889Z,54.56
2023-08-17T11:08:45.837Z,52.86
2023-08-17T11:09:45.781Z,52.26
2023-08-17T11:10:48.310Z,54.79
2023-08-17T11:11:50.547Z,60.22
2023-08-17T11:12:45.742Z,59.98
2023-08-17T11:13:45.725Z,59.75
2023-08-17T11:14:45.714Z,60.01
2023-08-17T11:15:45.703Z,60.66
2023-08-17T11:16:45.783Z,60.05
2023-08-17T11:17:45.737Z,59.14
2023-08-17T11:18:45.683Z,62.09
2023-08-17T11:19:45.688Z,61.49
2023-08-17T11:20:45.656Z,61.15
2023-08-17T11:21:45.617Z,60.11
2023-08-17T11:22:45.691Z,59.61
2023-08-17T11:23:45.707Z,61.05
2023-08-17T11:24:45.617Z,62.37
2023-08-17T11:25:45.620Z,60.21
2023-08-17T11:26:45.569Z,60.52
2023-08-17T11:27:45.574Z,59.55
2023-08-17T11:28:45.630Z,61.01
2023-08-17T11:29:45.695Z,59.95
2023-08-17T11:30:47.732Z,63.65
2023-08-17T11:31:51.106Z,61.38
2023-08-17T11:32:46.623Z,61.13
2023-08-17T11:33:45.579Z,61.71
2023-08-17T11:34:45.548Z,61.64
2023-08-17T11:35:45.684Z,59.99
2023-08-17T11:36:45.516Z,55.71
2023-08-17T11:37:45.532Z,56.57
2023-08-17T11:38:45.632Z,55.92
2023-08-17T11:39:45.462Z,57.87
2023-08-17T11:40:45.465Z,53.48
2023-08-17T11:41:45.538Z,55.08
2023-08-17T11:42:45.529Z,53.31
2023-08-17T11:43:45.546Z,52.42
2023-08-17T11:44:45.480Z,53.95
2023-08-17T11:45:45.474Z,55.29
2023-08-17T11:46:45.499Z,56.68
2023-08-17T11:47:45.566Z,57.88
2023-08-17T11:48:45.431Z,55.74
2023-08-17T11:49:45.506Z,56.84
2023-08-17T11:50:45.440Z,56.49
2023-08-17T11:51:45.465Z,52.85
2023-08-17T11:52:46.720Z,53.83
2023-08-17T11:53:49.380Z,54.14
2023-08-17T11:54:45.397Z,51.11
2023-08-17T11:55:45.390Z,52.77
2023-08-17T11:56:45.362Z,56.64
2023-08-17T11:57:45.385Z,58.10
2023-08-17T11:58:45.660Z,59.16
2023-08-17T11:59:45.385Z,56.71
2023-08-17T12:00:45.421Z,58.73
2023-08-17T12:01:45.339Z,58.70
2023-08-17T12:02:46.381Z,58.73
2023-08-17T12:03:45.527Z,57.85
2023-08-17T12:04:45.359Z,58.41
2023-08-17T12:05:45.377Z,58.73
2023-08-17T12:06:45.308Z,60.48
2023-08-17T12:07:45.331Z,59.95
2023-08-17T12:08:46.620Z,58.66
2023-08-17T12:09:45.252Z,58.95
2023-08-17T12:10:45.304Z,59.26
2023-08-17T12:11:45.333Z,58.46
2023-08-17T12:12:45.298Z,58.04
2023-08-17T12:13:45.307Z,61.79
2023-08-17T12:14:45.422Z,59.12
2023-08-17T12:15:45.239Z,59.14
2023-08-17T12:16:45.267Z,59.90
2023-08-17T12:17:45.352Z,61.31
2023-08-17T12:18:45.190Z,60.56
2023-08-17T12:19:45.257Z,61.66
2023-08-17T12:20:46.770Z,60.26
2023-08-17T12:21:45.243Z,58.35
2023-08-17T12:22:45.203Z,59.00
2023-08-17T12:23:45.291Z,58.93
2023-08-17T12:24:45.185Z,56.36
2023-08-17T12:25:45.170Z,59.42
2023-08-17T12:26:45.206Z,57.32
2023-08-17T12:27:45.158Z,58.31
2023-08-17T12:28:45.141Z,58.77
2023-08-17T12:29:45.180Z,61.87
2023-08-17T12:30:45.192Z,63.35
2023-08-17T12:31:45.158Z,62.20
2023-08-17T12:32:45.176Z,62.74
2023-08-17T12:33:45.149Z,58.24
2023-08-17T12:34:45.165Z,59.66
2023-08-17T12:35:45.158Z,59.14
2023-08-17T12:36:45.132Z,59.63
2023-08-17T12:37:45.131Z,52.77
2023-08-17T12:38:45.116Z,53.99
2023-08-17T12:39:45.110Z,57.62
2023-08-17T12:40:45.109Z,56.04
2023-08-17T12:41:45.121Z,55.77
2023-08-17T12:42:45.077Z,55.17
2023-08-17T12:43:45.039Z,56.21
2023-08-17T12:44:45.069Z,56.26
2023-08-17T12:45:45.060Z,55.31
2023-08-17T12:46:45.073Z,58.41
2023-08-17T12:47:45.202Z,58.85
2023-08-17T12:48:44.985Z,58.48
2023-08-17T12:49:44.993Z,59.93
2023-08-17T12:50:44.999Z,58.00
2023-08-17T12:51:46.596Z,57.71
2023-08-17T12:52:47.232Z,58.00
2023-08-17T12:53:50.267Z,58.78
2023-08-17T12:54:45.982Z,58.43
2023-08-17T12:55:44.970Z,58.34